Kissimmee, Florida
Current Conditions -  °F | °C
As of 1:50 PM on Friday 24 Oct 2014 (Local Time) from KISM Reporting Station
Broken Clouds Broken Clouds  
Wind Chill: 79°   Ceiling: 4700
Heat Index: 80°   Visibility: 10mi
Dew Point: 61°   Wind: 8mph
Humidity: 54%   Direction: 60°ENE
Pressure: 29.95"   Gusts: 12mph
Location:  28.29°N, 81.41°W
Report Text: KISM 241750Z 06007G10KT 10SM BKN047 26/16 A2995
Loading
Personal Weather Stations






























Interactive Weather Map
Tropical Storm Tracking
New forecast layout! Learn more

10-Day Weather Forecast

Advertisements
Track Severe Weather on mobile